Terminal Aerodrome Forecast
Issued by NWS Sioux Falls, SD

Home | Current Version | Previous Version | Graphics & Text | Print | Product List | Glossary On
Versions: 1 2 3 4 5 6 7 8 9 10 11 12 13 14 15 16 17 18 19 20 21 22 23 24 25 26 27 28 29 30 31 32 33 34 35 36 37 38
000
FTUS43 KFSD 261700
TAFSUX
TAF
KSUX 261720Z 2618/2718 04008KT P6SM SCT050 BKN110
     FM270600 07005KT P6SM OVC060
      TEMPO 2712/2716 5SM TSRA OVC040CB
     FM271600 07006KT P6SM OVC050 PROB30 2716/2718 5SM TSRA
      BKN030CB=

USA.gov is the U.S. government's official web portal to all federal, state and local government web resources and services.